Pagina principale
METAR-TAF:

METAR-TAF

Aeroporti :

Aeroporto di Radom-Sadków

Radom, Polonia

latitudine: 51-23-21N, longitudine: 21-12-49E, altezza: 186 m

Osservazione

Il bollettino è stato emesso 19 minuti fa, alle 14:30 UTC
Vento 6 kt da ovest, variando fra sud/sud-ovest e nord/nord-ovest
Temperature 27°C
Umidità 37%
Pressione 1014 hPa
Visibilità 10 km o più
nessuna nube inferiore a 1500 m e nessun cumulonembo

METAR: EPRA 171430Z 26006KT 200V330 CAVOK 27/11 Q1014

Ora: 16:49 (14:49 UTC)

Previsione

Il bollettino è stato emesso 19 minuti fa, alle 14:30 UTC
Previsione valida dal 17 alle 15 UTC al 17 alle 24 UTC
Vento 6 kt da ovest/sud-ovest
Visibilità 10 km o più
nessuna nube inferiore a 1500 m e nessun cumulonembo

TAF: EPRA 171430Z 1715/1724 24006KT CAVOK

Osservazioni e previsioni meteorologiche di più di 4000 aeroporti (messaggi METAR e TAF).

Le stazioni disponibili sono rappresentate dai dischi gialli e rossi sulla carta.

Puntare il mouse per vedere il nome della stazione.

Clicca sopra per visualizzare le osservazioni e previsioni meteorologiche.

Per cambiare la mappa : fare clic sui pulsanti verdi con una croce nera per ingrandire, il pulsante verde con un trattino per diminuire, o sulla freccia verde per le mappe adiacenti.


METAR-TAF: